Latest Weather Observations for Cleve Airport

IDS60801

Issued at 7:01 am CDT Tuesday 6 December 2016 (issued every 30 minutes, with the page automatically refreshed every 10 minutes)

About weather observations | Map of weather stations | Latest weather observations for SA | Other Formats
Station Details ID: 018116 Name: CLEVE AERODROME Lat: -33.71 Lon: 136.50 Height: 175.0 m
Data from the previous 72 hours. | See also: Recent months at Cleve Airport
Date/Time
CDT
Temp
°C
App
Temp
°C
Dew
Point
°C
Rel
Hum
%
Delta-T
°C
Wind Press
QNH
hPa
Press
MSL
hPa
Rain since
9am
mm
Dir  Spd
km/h
Gust
km/h
Spd
kts
Gust
kts
06/07:00am 12.6 10.5 11.2 91 0.7 WSW 13 15 7 8 1016.3 1015.7 0.0
06/06:30am 13.4 12.6 11.6 89 1.0 W 7 9 4 5 1016.1 1015.5 0.0
06/06:00am 13.2 12.0 11.6 90 0.9 NNE 9 11 5 6 1015.4 1014.8 0.0
06/05:30am 12.9 12.6 11.3 90 0.9 N 4 9 2 5 1014.8 1014.2 0.0
06/05:00am 12.5 12.5 11.2 92 0.7 N 2 9 1 5 1014.4 1013.8 0.0
06/04:30am 12.0 11.1 10.7 92 0.7 W 6 7 3 4 1013.8 1013.2 0.0
06/04:00am 12.4 11.0 11.0 91 0.7 NE 9 13 5 7 1013.2 1012.6 0.0
06/03:30am 12.5 10.3 10.9 90 0.8 NE 13 17 7 9 1012.8 1012.2 0.0
06/03:00am 13.0 12.5 10.9 87 1.1 WSW 4 7 2 4 1014.2 1013.6 0.0
06/02:30am 13.1 12.0 10.8 86 1.2 SSW 7 9 4 5 1014.4 1013.8 0.0
06/02:00am 13.0 11.6 10.9 87 1.1 WSW 9 13 5 7 1015.4 1014.8 0.0
06/01:30am 13.3 11.2 11.0 86 1.2 WSW 13 15 7 8 1015.6 1015.0 0.0
06/01:00am 13.3 13.7 11.2 87 1.1 CALM 0 7 0 4 1015.2 1014.6 0.0
06/12:30am 13.3 13.6 10.8 85 1.3 CALM 0 0 0 0 1015.1 1014.5 0.0
06/12:00am 13.2 11.7 10.7 85 1.3 ENE 9 9 5 5 1014.7 1014.1 0.0
 
Date/Time
CDT
Temp
°C
App
Temp
°C
Dew
Point
°C
Rel
Hum
%
Delta-T
°C
Wind Press
QNH
hPa
Press
MSL
hPa
Rain since
9am
mm
Dir  Spd
km/h
Gust
km/h
Spd
kts
Gust
kts
05/11:30pm 13.2 11.7 10.6 84 1.4 ENE 9 13 5 7 1015.1 1014.5 0.0
05/11:00pm 12.9 11.3 10.1 83 1.5 ENE 9 11 5 6 1014.7 1014.1 0.0
05/10:30pm 13.4 11.7 9.8 79 1.9 E 9 11 5 6 1015.2 1014.6 0.0
05/10:00pm 13.6 11.5 9.8 78 2.0 E 11 15 6 8 1014.8 1014.2 0.0
05/09:30pm 13.7 11.6 9.6 76 2.1 E 11 15 6 8 1014.1 1013.5 0.0
05/09:00pm 14.3 12.5 9.3 72 2.6 ESE 9 11 5 6 1014.2 1013.6 0.0
05/08:30pm 15.1 13.3 9.5 69 2.9 SE 9 11 5 6 1014.5 1013.9 0.0
05/08:00pm 15.4 13.2 9.5 68 3.1 SE 11 13 6 7 1014.0 1013.4 0.0
05/07:30pm 15.6 12.9 8.8 64 3.5 SE 13 15 7 8 1013.5 1012.9 0.0
05/07:00pm 15.7 13.0 8.9 64 3.5 SE 13 19 7 10 1013.2 1012.6 0.0
05/06:30pm 16.1 13.4 8.8 62 3.8 ESE 13 17 7 9 1013.3 1012.7 0.0
05/06:00pm 16.4 13.3 8.9 61 3.9 E 15 20 8 11 1013.3 1012.7 0.0
05/05:30pm 16.1 13.2 8.3 60 4.0 E 13 19 7 10 1013.9 1013.3 0.0
05/05:00pm 16.2 12.0 8.2 59 4.1 ESE 20 28 11 15 1013.1 1012.5 0.0
05/04:30pm 16.1 11.4 7.8 58 4.2 SE 22 30 12 16 1012.8 1012.2 0.0
05/04:00pm 16.9 12.7 8.1 56 4.5 ESE 20 28 11 15 1013.6 1013.0 0.0
05/03:30pm 17.0 12.4 8.2 56 4.5 SE 22 28 12 15 1013.4 1012.8 0.0
05/03:00pm 17.5 13.3 8.4 55 4.7 SE 20 28 11 15 1014.6 1014.0 0.0
05/02:30pm 17.4 14.2 8.3 55 4.7 SSE 15 20 8 11 1014.8 1014.2 0.0
05/02:00pm 18.3 14.8 8.8 54 5.0 S 17 24 9 13 1014.9 1014.3 0.0
05/01:30pm 18.4 15.3 8.7 53 5.1 SSE 15 26 8 14 1014.7 1014.1 0.0
05/01:00pm 17.4 13.5 8.5 56 4.6 SE 19 28 10 15 1014.8 1014.2 0.0
05/12:30pm 17.9 14.0 8.7 55 4.8 SE 19 30 10 16 1014.8 1014.2 0.0
05/12:00pm 17.3 13.3 9.0 58 4.3 ESE 20 28 11 15 1015.0 1014.4 0.0
05/11:30am 17.3 13.9 9.2 59 4.2 SE 17 22 9 12 1015.1 1014.5 0.0
05/11:00am 16.7 13.3 9.1 61 4.0 SE 17 24 9 13 1015.6 1015.0 0.0
05/10:30am 16.6 12.5 8.6 59 4.1 SSE 20 30 11 16 1015.3 1014.7 0.0
05/10:00am 16.8 12.3 8.5 58 4.3 SSE 22 32 12 17 1014.9 1014.3 0.0
05/09:30am 16.8 12.6 8.2 57 4.4 SE 20 28 11 15 1015.5 1014.9 0.0
05/09:00am 16.2 12.1 8.7 61 3.9 SE 20 30 11 16 1014.8 1014.2 4.2
05/08:30am 16.4 12.3 8.6 60 4.0 SSE 20 30 11 16 1014.9 1014.3 4.2
05/08:00am 14.6 12.1 9.6 72 2.6 S 13 22 7 12 1014.8 1014.2 4.2
05/07:30am 13.7 11.7 10.3 80 1.8 S 11 15 6 8 1014.1 1013.5 4.2
05/07:00am 12.6 10.2 10.1 85 1.3 SSE 13 17 7 9 1013.2 1012.6 4.2
05/06:30am 12.2 10.6 10.1 87 1.1 SSW 9 13 5 7 1013.5 1012.9 4.2
05/06:00am 11.7 9.6 9.8 88 1.0 SW 11 15 6 8 1013.6 1013.0 4.2
05/05:30am 12.0 9.2 9.9 87 1.1 SSW 15 20 8 11 1012.9 1012.3 4.2
05/05:00am 11.9 9.4 9.6 86 1.2 SW 13 17 7 9 1012.8 1012.2 4.2
05/04:30am 12.4 10.4 10.1 86 1.2 SW 11 15 6 8 1012.8 1012.2 4.2
05/04:00am 12.0 9.5 9.7 86 1.2 SW 13 15 7 8 1012.6 1012.0 4.2
05/03:30am 12.5 10.1 9.9 84 1.3 SW 13 17 7 9 1012.8 1012.2 4.2
05/03:00am 12.9 11.3 10.1 83 1.5 SW 9 13 5 7 1012.6 1012.0 4.2
05/02:30am 12.9 11.3 10.3 84 1.4 WSW 9 11 5 6 1012.8 1012.2 4.2
05/02:00am 13.4 11.1 10.4 82 1.6 SW 13 15 7 8 1012.3 1011.6 4.2
05/01:30am 13.8 11.5 10.6 81 1.7 SSW 13 17 7 9 1011.9 1011.3 4.2
05/01:00am 14.2 11.2 10.6 79 1.9 SSW 17 22 9 12 1011.9 1011.3 4.2
05/12:30am 14.7 12.4 11.7 82 1.6 WSW 15 19 8 10 1012.1 1011.4 4.2
05/12:00am 15.0 13.5 11.8 81 1.7 SW 11 17 6 9 1011.6 1011.0 4.2
 
Date/Time
CDT
Temp
°C
App
Temp
°C
Dew
Point
°C
Rel
Hum
%
Delta-T
°C
Wind Press
QNH
hPa
Press
MSL
hPa
Rain since
9am
mm
Dir  Spd
km/h
Gust
km/h
Spd
kts
Gust
kts
04/11:30pm 15.5 13.8 12.3 81 1.8 SW 13 19 7 10 1011.7 1011.1 4.2
04/11:00pm 15.5 14.1 12.3 81 1.8 SSW 11 15 6 8 1011.5 1010.9 4.2
04/10:30pm 16.4 13.5 12.4 77 2.2 SW 19 26 10 14 1011.2 1010.6 4.2
04/10:00pm 17.4 13.2 12.5 73 2.7 SW 26 32 14 17 1010.8 1010.2 4.2
04/09:30pm 18.5 13.9 13.4 72 2.9 SW 30 35 16 19 1010.0 1009.4 4.2
04/09:00pm 20.8 18.1 14.7 68 3.6 WSW 22 33 12 18 1009.3 1008.7 4.2
04/08:30pm 21.5 18.4 14.6 65 4.1 WSW 24 32 13 17 1008.5 1007.9 4.2
04/08:00pm 22.9 18.9 14.2 58 5.1 WSW 28 37 15 20 1008.1 1007.5 4.2
04/07:30pm 23.3 18.4 13.8 55 5.6 WSW 32 41 17 22 1006.9 1006.2 4.2
04/07:00pm 23.9 18.2 14.3 55 5.7 WSW 37 46 20 25 1005.7 1005.1 4.2
04/06:30pm 26.6 19.8 14.4 47 7.4 WSW 43 54 23 29 1004.9 1004.3 4.2
04/06:00pm 29.4 22.6 15.9 44 8.4 WSW 46 65 25 35 1003.9 1003.3 4.2
04/05:30pm 31.6 25.7 14.7 36 10.5 W 39 57 21 31 1003.1 1002.5 4.2
04/05:07pm 32.1 27.7 15.1 35 10.6 W 32 50 17 27 1003.0 1002.4 4.2
04/05:00pm 32.3 28.3 15.3 35 10.6 W 30 43 16 23 1002.9 1002.3 4.2
04/04:38pm 30.4 26.6 16.8 44 8.6 W 32 46 17 25 1002.7 1002.1 4.2
04/04:30pm 32.8 27.9 14.4 33 11.4 NW 33 48 18 26 1002.7 1002.1 4.2
04/04:17pm 33.8 28.5 14.3 31 12.0 NW 35 54 19 29 1002.6 1002.0 4.2
04/04:00pm 33.2 27.5 14.3 32 11.7 NW 37 48 20 26 1002.8 1002.2 4.2
04/03:30pm 33.4 28.6 14.5 32 11.7 NW 33 54 18 29 1003.0 1002.4 4.2
04/03:07pm 33.7 28.8 15.2 33 11.6 NW 35 54 19 29 1003.0 1002.4 4.2
04/03:00pm 33.4 27.4 15.4 34 11.3 NW 41 56 22 30 1003.2 1002.6 4.2
04/02:30pm 32.6 27.2 15.1 34 10.9 NW 37 57 20 31 1003.5 1002.9 4.2
04/02:24pm 32.1 27.7 15.6 37 10.3 NW 33 57 18 31 1003.6 1003.0 4.2
04/02:00pm 30.2 25.1 16.9 44 8.4 NNW 39 52 21 28 1003.8 1003.2 4.2
04/01:37pm 29.9 24.0 16.7 45 8.3 NNW 43 61 23 33 1004.0 1003.4 4.2
04/01:30pm 30.0 24.0 16.8 45 8.4 NNW 44 61 24 33 1004.1 1003.5 4.2
04/01:05pm 28.9 23.2 17.1 49 7.5 NNW 43 65 23 35 1004.5 1003.9 4.2
04/01:00pm 29.4 23.7 17.2 47 7.7 NNW 43 59 23 32 1004.5 1003.9 4.2
04/12:30pm 28.9 23.5 17.1 49 7.5 NNW 41 61 22 33 1004.6 1004.0 4.2
04/12:21pm 27.9 23.2 17.7 53 6.5 NNW 39 61 21 33 1004.9 1004.3 4.2
04/12:00pm 26.9 22.0 17.4 56 6.0 N 39 50 21 27 1005.1 1004.5 4.2
04/11:30am 25.7 20.9 17.6 61 5.1 NNW 39 57 21 31 1005.8 1005.2 4.2
04/11:06am 25.4 21.8 17.1 60 5.2 NNW 32 52 17 28 1006.7 1006.0 4.2
04/11:00am 25.0 21.5 17.5 63 4.7 NNW 32 48 17 26 1006.8 1006.1 4.2
04/10:30am 23.8 19.0 17.5 68 4.0 NW 39 61 21 33 1007.0 1006.3 4.2
04/10:01am 21.4 17.4 20.2 93 0.8 NNW 41 59 22 32 1007.1 1006.4 4.2
04/10:00am 21.5 17.2 20.3 93 0.8 NNW 43 59 23 32 1007.2 1006.5 4.2
04/09:30am 21.8 15.3 17.6 77 2.6 NNW 48 69 26 37 1008.0 1007.4 0.8
04/09:00am 24.5 18.7 16.0 59 5.2 NNW 41 59 22 32 1007.8 1007.2 0.0
04/08:34am 25.3 19.1 15.0 53 6.2 NNW 41 61 22 33 1007.4 1006.7 0.0
04/08:30am 25.4 19.3 15.1 53 6.3 NNW 41 57 22 31 1007.3 1006.6 0.0
04/08:00am 25.9 19.1 14.7 50 6.8 NNW 44 67 24 36 1007.1 1006.4 0.0
04/07:30am 26.2 18.9 14.6 48 7.0 NW 46 65 25 35 1006.4 1005.7 0.0
04/07:00am 25.4 18.9 15.1 53 6.2 NNW 43 65 23 35 1006.2 1005.5 0.0
04/06:30am 25.0 18.3 14.5 52 6.3 NNW 43 63 23 34 1006.8 1006.1 0.0
04/06:00am 26.2 19.6 13.7 46 7.4 NW 41 61 22 33 1006.9 1006.2 0.0
04/05:47am 26.3 21.0 12.4 42 8.1 NW 32 54 17 29 1006.9 1006.2 0.0
04/05:30am 25.9 21.8 11.3 40 8.4 NW 24 33 13 18 1006.6 1005.9 0.0
04/05:29am 25.9 21.8 11.3 40 8.3 NW 24 33 13 18 1006.6 1005.9 0.0
04/05:00am 26.7 19.8 10.4 36 9.2 NNW 37 57 20 31 1006.7 1006.0 0.0
04/04:54am 26.4 21.2 8.8 33 9.7 NNW 26 54 14 29 1006.9 1006.2 0.0
04/04:30am 25.4 21.4 6.6 30 9.9 N 17 22 9 12 1006.6 1005.9 0.0
04/04:00am 24.5 18.9 5.3 29 9.8 NE 24 30 13 16 1006.3 1005.6 0.0
04/03:30am 23.5 19.1 4.9 30 9.4 NNE 17 20 9 11 1006.8 1006.1 0.0
04/03:00am 22.6 19.0 5.1 32 8.8 NE 13 15 7 8 1006.9 1006.2 0.0
04/02:30am 22.0 18.8 5.0 33 8.5 NE 11 17 6 9 1007.2 1006.5 0.0
04/02:00am 22.3 18.4 5.3 33 8.5 ENE 15 19 8 10 1007.5 1006.9 0.0
04/01:52am 21.7 18.0 6.4 37 7.8 NE 15 19 8 10 1007.7 1007.1 0.0
04/01:30am 16.3 13.2 10.4 68 3.2 ENE 17 17 9 9 1008.0 1007.4 0.0
04/01:00am 15.6 13.3 10.6 72 2.7 ENE 13 15 7 8 1008.7 1008.1 0.0
04/12:30am 15.6 14.3 12.4 81 1.8 ESE 11 13 6 7 1009.3 1008.7 0.0
04/12:00am 15.7 15.3 12.3 80 1.9 ESE 6 7 3 4 1009.6 1009.0 0.0
 
Date/Time
CDT
Temp
°C
App
Temp
°C
Dew
Point
°C
Rel
Hum
%
Delta-T
°C
Wind Press
QNH
hPa
Press
MSL
hPa
Rain since
9am
mm
Dir  Spd
km/h
Gust
km/h
Spd
kts
Gust
kts
03/11:30pm 16.3 16.0 12.8 80 2.0 NE 6 9 3 5 1009.8 1009.2 0.0
03/11:00pm 15.6 13.9 12.4 81 1.8 NE 13 13 7 7 1010.1 1009.5 0.0
03/10:30pm 15.6 14.0 11.4 76 2.3 E 11 13 6 7 1010.4 1009.8 0.0
03/10:00pm 16.7 14.7 11.6 72 2.8 E 13 17 7 9 1010.6 1010.0 0.0
03/09:30pm 17.5 15.2 10.6 64 3.7 ESE 13 15 7 8 1010.4 1009.8 0.0
03/09:00pm 18.9 15.9 9.4 54 5.1 ESE 15 17 8 9 1010.4 1009.8 0.0
03/08:30pm 20.2 17.5 8.8 48 6.0 ESE 13 17 7 9 1010.4 1009.8 0.0
03/08:00pm 21.6 18.0 8.5 43 7.0 ESE 17 20 9 11 1010.4 1009.8 0.0
03/07:30pm 23.0 18.9 8.7 40 7.7 ESE 20 26 11 14 1010.4 1009.8 0.0
03/07:00pm 23.2 18.7 8.5 39 7.9 ESE 22 28 12 15 1010.4 1009.8 0.0
03/06:30pm 24.0 19.3 7.6 35 8.7 ESE 22 26 12 14 1010.3 1009.7 0.0
03/06:00pm 23.8 19.0 7.4 35 8.7 ESE 22 28 12 15 1010.3 1009.7 0.0
03/05:30pm 24.6 20.3 7.7 34 9.0 ESE 20 28 11 15 1010.2 1009.6 0.0
03/05:00pm 25.7 21.4 7.8 32 9.6 SE 20 26 11 14 1010.3 1009.7 0.0
03/04:30pm 26.0 21.8 7.6 31 9.9 SSE 19 24 10 13 1010.6 1010.0 0.0
03/04:00pm 26.6 22.4 8.1 31 10.0 SSE 20 28 11 15 1010.6 1010.0 0.0
03/03:30pm 26.7 22.8 8.6 32 9.9 SSE 19 28 10 15 1010.9 1010.3 0.0
03/03:00pm 26.4 22.2 8.4 32 9.8 SE 20 30 11 16 1011.0 1010.4 0.0
03/02:30pm 26.8 24.0 8.7 32 9.9 SE 13 24 7 13 1011.2 1010.6 0.0
03/02:00pm 26.5 23.0 8.9 33 9.7 SE 17 24 9 13 1011.6 1011.0 0.0
03/01:30pm 25.6 21.7 8.6 34 9.3 SE 19 28 10 15 1012.2 1011.5 0.0
03/01:00pm 25.4 22.4 9.3 36 8.9 SSE 15 22 8 12 1012.3 1011.6 0.0
03/12:30pm 25.3 22.4 9.6 37 8.7 SE 15 26 8 14 1012.2 1011.5 0.0
03/12:00pm 25.1 22.1 10.6 40 8.2 SE 17 28 9 15 1012.2 1011.5 0.0
03/11:30am 23.8 21.1 11.8 47 6.8 SE 17 24 9 13 1012.4 1011.8 0.0
03/11:00am 23.3 20.2 11.7 48 6.6 SE 19 26 10 14 1012.5 1011.9 0.0
03/10:30am 22.0 19.7 11.7 52 5.8 ESE 15 20 8 11 1013.0 1012.4 0.0
03/10:00am 20.3 17.9 11.5 57 4.9 ESE 15 20 8 11 1013.1 1012.5 0.0
03/09:30am 19.1 16.3 11.4 61 4.3 ESE 17 22 9 12 1013.1 1012.5 0.0
03/09:00am 18.2 15.5 11.7 66 3.6 ESE 17 22 9 12 1013.3 1012.7 0.0
03/08:30am 17.1 14.1 11.8 71 2.9 ESE 19 24 10 13 1013.2 1012.6 0.0
03/08:00am 16.0 13.4 12.0 77 2.2 ESE 17 22 9 12 1013.2 1012.6 0.0
03/07:30am 15.1 12.9 12.2 83 1.6 E 15 19 8 10 1013.2 1012.6 0.0

Other Formats:

Comma delimited format used in spreadsheet applications
http://www.bom.gov.au/fwo/IDS60801/IDS60801.94662.axf

JavaScript Object Notation format (JSON) in row-major order
http://www.bom.gov.au/fwo/IDS60801/IDS60801.94662.json